Tracey Kosan — 2EYB2 — position and weather

sailwx.info

Track history (hours):
 
Tides and Currents Weather Stations Pressure Air Temp Water Temp Dewpoint Dewpoint Depression Visibility Wind Speed Wind Dir Waves Ship Positions

Tracey Kosan

Last reported at 2018-Feb-12 02:37 UTC. Time now 2018-Feb-22 03:13 UTC.
Position N 16°11' W 061°31'.
Warning: this ship's position is 10 days out of date.

Length 100 m; draft 5.3 m.

Type: Ship. MMSI: 235089094.

Date/timePositionNaut miles runAvg speedWind from/ knotsBaromVisibWave heightAir tempDewpointWater temp
2018-Feb-12 02:37N 16°11' W 061°31'1 8.2
2018-Feb-12 02:27N 16°13' W 061°32'2 0.1
2018-Feb-11 09:48N 16°14' W 061°33'0 0.9
2018-Feb-11 09:31N 16°14' W 061°33'4 7.7
2018-Feb-11 08:58N 16°10' W 061°31'2710.7
2018-Feb-11 06:26N 15°43' W 061°34'1011.0
2018-Feb-11 05:32N 15°34' W 061°38'1 8.9
2018-Feb-11 05:24N 15°35' W 061°38'511.6
2018-Feb-11 04:58N 15°40' W 061°36'  
2018-Feb-06 16:35N 16°20' W 062°24'113.2
2018-Feb-06 16:29N 16°22' W 062°24'612.9
2018-Feb-06 16:00N 16°28' W 062°24'912.7
2018-Feb-06 15:20N 16°36' W 062°25'412.7
2018-Feb-06 15:00N 16°40' W 062°24'713.6
2018-Feb-06 14:30N 16°46' W 062°21'913.4
2018-Feb-06 13:49N 16°54' W 062°16'813.3
2018-Feb-06 13:12N 17°03' W 062°15'313.4
2018-Feb-06 12:59N 17°05' W 062°14'1313.5
2018-Feb-06 12:00N 17°18' W 062°13'713.4
2018-Feb-06 11:30N 17°25' W 062°12'713.4
2018-Feb-06 11:00N 17°32' W 062°11'1912.6
2018-Feb-06 09:30N 17°50' W 062°14'  
Track history (hours):
 
Tides and Currents Weather Stations Pressure Air Temp Water Temp Dewpoint Dewpoint Depression Visibility Wind Speed Wind Dir Waves Ship Positions

Tracey Kosan

Last reported at 2018-Feb-12 02:37 UTC. Time now 2018-Feb-22 03:13 UTC.
Position N 16°11' W 061°31'.
Warning: this ship's position is 10 days out of date.

Length 100 m; draft 5.3 m.

Type: Ship. MMSI: 235089094.

Date/timePositionNaut miles runAvg speedWind from/ knotsBaromVisibWave heightAir tempDewpointWater temp
2018-Feb-12 02:37N 16°11' W 061°31'1 8.2
2018-Feb-12 02:27N 16°13' W 061°32'2 0.1
2018-Feb-11 09:48N 16°14' W 061°33'0 0.9
2018-Feb-11 09:31N 16°14' W 061°33'4 7.7
2018-Feb-11 08:58N 16°10' W 061°31'2710.7
2018-Feb-11 06:26N 15°43' W 061°34'1011.0
2018-Feb-11 05:32N 15°34' W 061°38'1 8.9
2018-Feb-11 05:24N 15°35' W 061°38'511.6
2018-Feb-11 04:58N 15°40' W 061°36'  
2018-Feb-06 16:35N 16°20' W 062°24'113.2
2018-Feb-06 16:29N 16°22' W 062°24'612.9
2018-Feb-06 16:00N 16°28' W 062°24'912.7
2018-Feb-06 15:20N 16°36' W 062°25'412.7
2018-Feb-06 15:00N 16°40' W 062°24'713.6
2018-Feb-06 14:30N 16°46' W 062°21'913.4
2018-Feb-06 13:49N 16°54' W 062°16'813.3
2018-Feb-06 13:12N 17°03' W 062°15'313.4
2018-Feb-06 12:59N 17°05' W 062°14'1313.5
2018-Feb-06 12:00N 17°18' W 062°13'713.4
2018-Feb-06 11:30N 17°25' W 062°12'713.4
2018-Feb-06 11:00N 17°32' W 062°11'1912.6
2018-Feb-06 09:30N 17°50' W 062°14'  

Dump ship's entire track history